Time;durP1;ratioP1;P1;durP2;ratioP2;P2;SDS_P1;SDS_P2;PMS_P1;PMS_P2;Temp;Humidity;BMP_temperature;BMP_pressure;BME280_temperature;BME280_humidity;BME280_pressure;Samples;Min_cycle;Max_cycle;Signal;HPM_P1;HPM_P2
2023/09/04 00:02:05;;;;;;;5.93;4.13;;;;;15.00;102264.00;;;;5016581;28;20229;-73
2023/09/04 00:04:52;;;;;;;4.13;3.63;;;;;15.00;102262.00;;;;5027109;28;20272;-73
2023/09/04 00:07:40;;;;;;;5.83;3.63;;;;;15.00;102267.00;;;;5024528;28;20240;-74
2023/09/04 00:10:26;;;;;;;7.23;3.83;;;;;15.00;102268.00;;;;5020513;28;20252;-72
2023/09/04 00:13:14;;;;;;;4.87;3.53;;;;;14.90;102274.00;;;;5025214;28;20235;-74
2023/09/04 00:16:00;;;;;;;4.20;3.70;;;;;14.80;102267.00;;;;5018925;28;20323;-75
2023/09/04 00:18:47;;;;;;;8.37;4.00;;;;;14.80;102266.00;;;;5025129;28;20378;-73
2023/09/04 00:21:33;;;;;;;8.83;4.17;;;;;14.80;102267.00;;;;5024360;28;20763;-73
2023/09/04 00:24:22;;;;;;;6.27;4.50;;;;;14.80;102269.00;;;;5026412;28;20230;-73
2023/09/04 00:27:09;;;;;;;10.07;4.27;;;;;14.80;102270.00;;;;5025193;28;20811;-75
2023/09/04 00:29:55;;;;;;;5.03;4.10;;;;;14.70;102266.00;;;;5018873;28;20237;-73
2023/09/04 00:32:41;;;;;;;4.50;3.77;;;;;14.70;102268.00;;;;5022902;28;20282;-74
2023/09/04 00:35:27;;;;;;;5.97;4.40;;;;;14.70;102265.00;;;;5014899;28;20355;-73
2023/09/04 00:38:14;;;;;;;7.70;4.23;;;;;14.70;102265.00;;;;5017325;28;20228;-74
2023/09/04 00:41:02;;;;;;;5.63;4.60;;;;;14.60;102257.00;;;;5022340;28;20317;-73
2023/09/04 00:43:48;;;;;;;6.90;4.63;;;;;14.60;102262.00;;;;5020350;28;20233;-74
2023/09/04 00:46:35;;;;;;;5.93;4.30;;;;;14.60;102263.00;;;;5024874;28;20609;-74
2023/09/04 00:49:21;;;;;;;6.27;4.60;;;;;14.50;102259.00;;;;5025950;28;20232;-73
2023/09/04 00:52:08;;;;;;;6.80;4.60;;;;;14.50;102265.00;;;;5018982;28;20603;-73
2023/09/04 00:54:55;;;;;;;5.23;4.40;;;;;14.50;102272.00;;;;5025259;28;20710;-74
2023/09/04 00:57:44;;;;;;;6.53;4.80;;;;;14.40;102265.00;;;;5021736;28;20615;-72
2023/09/04 01:00:31;;;;;;;5.97;4.30;;;;;14.40;102262.00;;;;5026068;28;20265;-73
2023/09/04 01:03:18;;;;;;;6.50;4.33;;;;;14.40;102261.00;;;;5024816;28;20235;-74
2023/09/04 01:06:05;;;;;;;6.53;4.60;;;;;14.30;102259.00;;;;5021861;28;20746;-73
2023/09/04 01:08:52;;;;;;;7.03;4.63;;;;;14.30;102251.00;;;;5025125;28;21727;-73
2023/09/04 01:11:47;;;;;;;6.83;5.13;;;;;14.40;102245.00;;;;5022522;28;20907;-74
2023/09/04 01:14:36;;;;;;;6.77;5.10;;;;;14.40;102253.00;;;;5022564;28;20279;-73
2023/09/04 01:17:23;;;;;;;6.53;4.87;;;;;14.40;102247.00;;;;5022934;28;20378;-73
2023/09/04 01:20:21;;;;;;;4.83;4.10;;;;;14.40;102249.00;;;;5019095;28;20228;-71
2023/09/04 01:23:08;;;;;;;5.67;4.43;;;;;14.40;102245.00;;;;5021627;28;20235;-73
2023/09/04 01:26:02;;;;;;;7.73;4.50;;;;;14.30;102250.00;;;;5020289;28;20254;-73
2023/09/04 01:28:58;;;;;;;7.43;5.40;;;;;14.30;102248.00;;;;5022585;28;20232;-69
2023/09/04 01:31:49;;;;;;;6.73;5.10;;;;;14.40;102255.00;;;;5022496;28;20231;-73
2023/09/04 01:34:40;;;;;;;6.60;4.73;;;;;14.30;102242.00;;;;5021993;28;20238;-74
2023/09/04 01:37:29;;;;;;;8.17;5.03;;;;;14.30;102239.00;;;;5022959;28;20732;-73
2023/09/04 01:40:15;;;;;;;5.97;4.87;;;;;14.30;102248.00;;;;5012559;28;20229;-74
2023/09/04 01:43:01;;;;;;;11.37;5.37;;;;;14.30;102242.00;;;;5015258;28;20860;-74
2023/09/04 01:45:48;;;;;;;9.90;6.00;;;;;14.30;102254.00;;;;5017605;28;20360;-71
2023/09/04 01:48:35;;;;;;;7.57;6.23;;;;;14.20;102242.00;;;;5023580;28;20249;-72
2023/09/04 01:51:21;;;;;;;7.07;5.70;;;;;14.20;102242.00;;;;5019832;28;20233;-73
2023/09/04 01:54:09;;;;;;;8.23;6.47;;;;;14.20;102236.00;;;;5024249;28;20221;-73
2023/09/04 01:56:56;;;;;;;9.00;6.10;;;;;14.10;102238.00;;;;5011246;28;20243;-74
2023/09/04 01:59:42;;;;;;;11.37;6.00;;;;;14.20;102240.00;;;;5024309;28;20233;-71
2023/09/04 02:02:28;;;;;;;7.37;5.83;;;;;14.20;102243.00;;;;5019824;28;20235;-74
2023/09/04 02:05:15;;;;;;;8.97;6.17;;;;;14.10;102240.00;;;;5015324;28;20293;-74
2023/09/04 02:08:01;;;;;;;9.57;6.73;;;;;14.10;102243.00;;;;5014468;28;20226;-73
2023/09/04 02:10:50;;;;;;;7.93;6.30;;;;;14.10;102240.00;;;;5019065;28;20240;-73
2023/09/04 02:13:36;;;;;;;9.50;6.30;;;;;14.00;102246.00;;;;5022662;28;20757;-74
2023/09/04 02:16:23;;;;;;;11.03;6.53;;;;;14.00;102243.00;;;;5023989;28;20245;-73
2023/09/04 02:19:09;;;;;;;10.83;6.93;;;;;14.10;102251.00;;;;5017750;28;20278;-75
2023/09/04 02:21:55;;;;;;;11.50;7.40;;;;;14.10;102247.00;;;;5015548;28;20241;-73
2023/09/04 02:24:43;;;;;;;9.93;6.50;;;;;14.00;102235.00;;;;5021812;28;20233;-74
2023/09/04 02:27:31;;;;;;;10.40;6.60;;;;;14.00;102237.00;;;;5023631;28;20229;-72
2023/09/04 02:30:18;;;;;;;12.73;7.30;;;;;14.00;102241.00;;;;5017667;28;20370;-72
2023/09/04 02:33:04;;;;;;;14.87;7.20;;;;;14.00;102229.00;;;;5022446;28;20581;-74
2023/09/04 02:35:51;;;;;;;12.43;6.83;;;;;14.00;102232.00;;;;5018515;28;20226;-73
2023/09/04 02:38:38;;;;;;;8.07;6.23;;;;;13.90;102234.00;;;;5017664;28;20227;-74
2023/09/04 02:41:24;;;;;;;11.03;6.70;;;;;13.90;102220.00;;;;5020440;28;20230;-73
2023/09/04 02:44:12;;;;;;;12.90;6.77;;;;;13.80;102226.00;;;;5016997;28;20724;-73
2023/09/04 02:46:59;;;;;;;10.87;7.07;;;;;13.80;102226.00;;;;5015065;28;20316;-73
2023/09/04 02:49:44;;;;;;;8.03;6.50;;;;;13.70;102221.00;;;;5021965;28;20289;-72
2023/09/04 02:52:31;;;;;;;8.67;6.57;;;;;13.70;102225.00;;;;5018141;28;20236;-73
2023/09/04 02:55:17;;;;;;;10.40;7.30;;;;;13.70;102221.00;;;;5019195;28;20293;-73
2023/09/04 02:58:04;;;;;;;10.17;6.67;;;;;13.60;102208.00;;;;5016334;28;20226;-75
2023/09/04 03:00:51;;;;;;;10.57;7.00;;;;;13.60;102205.00;;;;5022218;28;20306;-74
2023/09/04 03:03:38;;;;;;;11.13;7.23;;;;;13.60;102210.00;;;;5018418;28;20376;-72
2023/09/04 03:06:24;;;;;;;9.67;7.00;;;;;13.60;102199.00;;;;5020921;28;20304;-73
2023/09/04 03:09:11;;;;;;;11.77;6.90;;;;;13.50;102205.00;;;;5023315;28;20760;-73
2023/09/04 03:11:57;;;;;;;11.50;7.07;;;;;13.60;102209.00;;;;5021102;28;20252;-73
2023/09/04 03:14:43;;;;;;;10.07;7.00;;;;;13.60;102212.00;;;;5024884;28;20324;-74
2023/09/04 03:17:33;;;;;;;9.10;6.87;;;;;13.60;102208.00;;;;5018443;28;20725;-73
2023/09/04 03:20:20;;;;;;;13.63;7.27;;;;;13.60;102208.00;;;;5021793;28;20364;-70
2023/09/04 03:23:07;;;;;;;11.90;7.67;;;;;13.60;102198.00;;;;5023780;28;20270;-73
2023/09/04 03:25:53;;;;;;;11.87;7.63;;;;;13.60;102198.00;;;;5014977;28;20292;-73
2023/09/04 03:28:39;;;;;;;11.30;7.70;;;;;13.50;102195.00;;;;5017735;28;20288;-75
2023/09/04 03:31:26;;;;;;;11.57;7.60;;;;;13.50;102197.00;;;;5020763;28;20276;-73
2023/09/04 03:34:14;;;;;;;11.07;7.30;;;;;13.50;102190.00;;;;5018893;28;20229;-73
2023/09/04 03:37:01;;;;;;;10.33;7.67;;;;;13.60;102190.00;;;;5024175;28;20256;-74
2023/09/04 03:39:47;;;;;;;15.37;8.20;;;;;13.60;102194.00;;;;5021455;28;20805;-71
2023/09/04 03:42:33;;;;;;;9.93;7.77;;;;;13.60;102196.00;;;;5021545;28;20328;-74
2023/09/04 03:45:20;;;;;;;10.60;8.23;;;;;13.50;102203.00;;;;5019092;28;20252;-73
2023/09/04 03:48:07;;;;;;;12.40;7.90;;;;;13.60;102192.00;;;;5015622;28;20607;-70
2023/09/04 03:50:59;;;;;;;11.73;8.37;;;;;13.60;102192.00;;;;5022630;28;20359;-73
2023/09/04 03:53:45;;;;;;;10.97;7.37;;;;;13.60;102180.00;;;;5024107;28;20234;-73
2023/09/04 03:56:32;;;;;;;12.27;8.10;;;;;13.60;102184.00;;;;5023963;28;20373;-74
2023/09/04 03:59:18;;;;;;;11.90;8.07;;;;;13.60;102191.00;;;;5018988;28;20245;-74
2023/09/04 04:02:05;;;;;;;12.73;8.10;;;;;13.60;102184.00;;;;5016129;28;20232;-73
2023/09/04 04:04:52;;;;;;;11.77;7.97;;;;;13.60;102186.00;;;;5023823;28;20228;-74
2023/09/04 04:07:40;;;;;;;11.53;7.90;;;;;13.60;102188.00;;;;5021479;28;20264;-72
2023/09/04 04:10:26;;;;;;;11.07;7.43;;;;;13.50;102194.00;;;;5022636;28;20241;-73
2023/09/04 04:13:13;;;;;;;10.50;7.43;;;;;13.40;102191.00;;;;5019132;28;20327;-73
2023/09/04 04:15:59;;;;;;;11.20;7.73;;;;;13.40;102203.00;;;;5025335;28;24139;-73
2023/09/04 04:18:45;;;;;;;10.67;7.50;;;;;13.40;102196.00;;;;5017020;28;20803;-74
2023/09/04 04:21:32;;;;;;;9.43;6.90;;;;;13.40;102191.00;;;;5024995;28;20233;-73
2023/09/04 04:24:20;;;;;;;9.33;6.83;;;;;13.40;102191.00;;;;5021437;28;20328;-70
2023/09/04 04:27:08;;;;;;;12.37;7.97;;;;;13.40;102191.00;;;;5019655;28;20233;-73
2023/09/04 04:29:55;;;;;;;11.40;7.87;;;;;13.40;102191.00;;;;5024107;28;20237;-72
2023/09/04 04:32:42;;;;;;;11.20;7.07;;;;;13.40;102190.00;;;;5015107;28;20361;-72
2023/09/04 04:35:28;;;;;;;10.37;7.60;;;;;13.30;102193.00;;;;5024382;28;20233;-73
2023/09/04 04:38:14;;;;;;;10.93;7.73;;;;;13.30;102180.00;;;;5017405;28;20236;-73
2023/09/04 04:41:02;;;;;;;11.00;7.90;;;;;13.30;102181.00;;;;5011049;28;20620;-73
2023/09/04 04:43:48;;;;;;;11.57;7.53;;;;;13.30;102190.00;;;;5016955;28;20225;-72
2023/09/04 04:46:34;;;;;;;13.13;8.30;;;;;13.30;102193.00;;;;5019333;28;20225;-73
2023/09/04 04:49:22;;;;;;;11.63;8.10;;;;;13.20;102199.00;;;;5020792;28;20241;-74
2023/09/04 04:52:09;;;;;;;12.87;8.17;;;;;13.20;102191.00;;;;5018304;28;20225;-75
2023/09/04 04:54:56;;;;;;;10.13;7.57;;;;;13.20;102196.00;;;;5023356;28;20233;-73
2023/09/04 04:57:43;;;;;;;11.73;7.73;;;;;13.20;102188.00;;;;5018870;28;20882;-73
2023/09/04 05:00:30;;;;;;;11.90;7.43;;;;;13.20;102191.00;;;;5021170;28;20236;-73
2023/09/04 05:03:16;;;;;;;13.50;8.10;;;;;13.20;102189.00;;;;5011511;28;20227;-74
2023/09/04 05:06:02;;;;;;;12.63;8.13;;;;;13.20;102193.00;;;;5020309;28;20225;-73
2023/09/04 05:08:49;;;;;;;14.30;8.40;;;;;13.20;102186.00;;;;5021138;28;20615;-73
2023/09/04 05:11:35;;;;;;;11.20;8.13;;;;;13.30;102192.00;;;;5019699;28;20343;-75
2023/09/04 05:14:24;;;;;;;12.87;8.50;;;;;13.30;102191.00;;;;5021030;28;20734;-73
2023/09/04 05:17:11;;;;;;;11.97;8.17;;;;;13.30;102183.00;;;;5020694;28;20292;-75
2023/09/04 05:19:57;;;;;;;13.90;8.30;;;;;13.30;102183.00;;;;5021682;28;20605;-71
2023/09/04 05:22:44;;;;;;;16.50;7.63;;;;;13.30;102182.00;;;;5020653;28;20645;-72
2023/09/04 05:25:30;;;;;;;11.57;7.73;;;;;13.30;102186.00;;;;5024688;28;20361;-73
2023/09/04 05:28:16;;;;;;;10.63;7.77;;;;;13.40;102188.00;;;;5017069;28;20249;-72
2023/09/04 05:31:04;;;;;;;11.80;7.97;;;;;13.40;102189.00;;;;5020854;28;20363;-73
2023/09/04 05:33:51;;;;;;;15.77;8.57;;;;;13.40;102195.00;;;;5017546;28;20232;-73
2023/09/04 05:36:37;;;;;;;12.70;8.13;;;;;13.40;102191.00;;;;5021949;28;20232;-72
2023/09/04 05:39:24;;;;;;;12.10;7.97;;;;;13.50;102188.00;;;;5015815;28;20372;-73
2023/09/04 05:42:10;;;;;;;12.83;9.17;;;;;13.50;102198.00;;;;5025270;28;20645;-73
2023/09/04 05:44:56;;;;;;;13.70;9.33;;;;;13.60;102199.00;;;;5018840;28;20257;-74
2023/09/04 05:47:44;;;;;;;14.40;8.87;;;;;13.60;102191.00;;;;5019149;28;20637;-72
2023/09/04 05:50:30;;;;;;;15.17;9.83;;;;;13.70;102206.00;;;;5023275;28;20736;-72
2023/09/04 05:53:18;;;;;;;14.23;9.90;;;;;13.80;102195.00;;;;5018194;28;20228;-73
2023/09/04 05:56:06;;;;;;;15.30;10.87;;;;;13.80;102194.00;;;;5017668;28;20226;-71
2023/09/04 05:58:52;;;;;;;15.40;10.53;;;;;13.90;102200.00;;;;5014820;28;20242;-71
2023/09/04 06:01:39;;;;;;;18.37;10.43;;;;;14.00;102195.00;;;;5020074;28;20238;-72
2023/09/04 06:04:27;;;;;;;18.03;11.70;;;;;14.10;102188.00;;;;5014451;28;20235;-74
2023/09/04 06:07:14;;;;;;;15.97;10.90;;;;;14.20;102193.00;;;;5017913;28;20233;-73
2023/09/04 06:10:01;;;;;;;18.03;11.57;;;;;14.20;102205.00;;;;5021831;28;20305;-72
2023/09/04 06:12:47;;;;;;;17.77;11.17;;;;;14.30;102196.00;;;;5012197;28;20254;-73
2023/09/04 06:15:34;;;;;;;18.80;11.97;;;;;14.30;102198.00;;;;5022741;28;20230;-77
2023/09/04 06:18:20;;;;;;;17.17;11.70;;;;;14.40;102196.00;;;;5016831;28;20242;-72
2023/09/04 06:21:08;;;;;;;16.67;11.23;;;;;14.40;102197.00;;;;5016628;28;20850;-75
2023/09/04 06:23:55;;;;;;;17.90;12.07;;;;;14.50;102199.00;;;;5019772;28;20297;-72
2023/09/04 06:26:41;;;;;;;19.30;11.87;;;;;14.50;102191.00;;;;5021234;28;20592;-73
2023/09/04 06:29:28;;;;;;;19.30;12.50;;;;;14.60;102192.00;;;;5018680;28;20957;-71
2023/09/04 06:32:14;;;;;;;20.30;12.30;;;;;14.70;102196.00;;;;5017094;28;20296;-71
2023/09/04 06:35:00;;;;;;;20.37;12.30;;;;;14.70;102199.00;;;;5024275;28;20309;-72
2023/09/04 06:37:48;;;;;;;18.93;12.17;;;;;14.80;102205.00;;;;5013427;28;20284;-74
2023/09/04 06:40:34;;;;;;;19.57;12.30;;;;;14.80;102201.00;;;;5021844;28;20255;-76
2023/09/04 06:43:23;;;;;;;23.80;12.83;;;;;14.90;102201.00;;;;5020930;28;20230;-74
2023/09/04 06:46:09;;;;;;;22.17;13.37;;;;;14.90;102201.00;;;;5027928;28;20232;-75
2023/09/04 06:48:56;;;;;;;20.87;13.23;;;;;15.00;102194.00;;;;5028810;28;20239;-75
2023/09/04 06:51:42;;;;;;;19.93;12.57;;;;;15.00;102199.00;;;;5027530;28;20246;-74
2023/09/04 06:54:30;;;;;;;20.07;12.33;;;;;15.10;102193.00;;;;5019718;28;20612;-75
2023/09/04 06:57:16;;;;;;;18.80;11.97;;;;;15.20;102182.00;;;;5021215;28;20231;-74
2023/09/04 07:00:07;;;;;;;20.67;12.90;;;;;15.20;102180.00;;;;5024897;28;20263;-72
2023/09/04 07:02:53;;;;;;;21.00;11.80;;;;;15.30;102180.00;;;;5020309;28;20233;-74
2023/09/04 07:05:40;;;;;;;18.60;11.63;;;;;15.30;102183.00;;;;5022988;28;20252;-73
2023/09/04 07:08:26;;;;;;;15.70;10.67;;;;;15.30;102178.00;;;;5010713;28;20248;-74
2023/09/04 07:11:14;;;;;;;15.27;10.70;;;;;15.40;102185.00;;;;5020697;28;20220;-73
2023/09/04 07:14:00;;;;;;;16.60;10.70;;;;;15.50;102185.00;;;;5026783;28;20288;-71
2023/09/04 07:16:47;;;;;;;15.33;10.27;;;;;15.60;102184.00;;;;5028111;28;20240;-73
2023/09/04 07:19:53;;;;;;;15.53;10.40;;;;;15.70;102194.00;;;;5020390;28;20777;-72
2023/09/04 07:22:39;;;;;;;16.63;10.37;;;;;15.70;102194.00;;;;5026318;28;20249;-73
2023/09/04 07:25:25;;;;;;;14.00;10.03;;;;;15.80;102189.00;;;;5026852;28;20225;-73
2023/09/04 07:28:13;;;;;;;16.90;10.60;;;;;15.90;102188.00;;;;5027212;28;20918;-75
2023/09/04 07:31:16;;;;;;;12.93;9.40;;;;;16.00;102201.00;;;;5027117;28;20242;-73
2023/09/04 07:34:03;;;;;;;14.97;9.97;;;;;16.00;102198.00;;;;5019288;28;20277;-74
2023/09/04 07:36:49;;;;;;;15.63;9.90;;;;;16.10;102196.00;;;;5027064;28;20495;-74
2023/09/04 07:39:36;;;;;;;14.97;9.93;;;;;16.20;102210.00;;;;5027861;28;20311;-73
2023/09/04 07:42:22;;;;;;;12.63;9.00;;;;;16.30;102207.00;;;;5021649;28;20248;-74
2023/09/04 07:45:11;;;;;;;12.87;9.67;;;;;16.30;102210.00;;;;5027556;28;20268;-75
2023/09/04 07:47:57;;;;;;;14.07;10.10;;;;;16.50;102206.00;;;;5024022;28;20304;-74
2023/09/04 07:50:44;;;;;;;15.13;9.53;;;;;16.50;102215.00;;;;5020610;28;20245;-74
2023/09/04 07:53:30;;;;;;;12.60;8.97;;;;;16.70;102214.00;;;;5022293;28;20855;-74
2023/09/04 07:56:16;;;;;;;14.43;9.30;;;;;16.80;102212.00;;;;5019844;28;20229;-74
2023/09/04 07:59:04;;;;;;;13.00;8.87;;;;;16.90;102207.00;;;;5024390;28;20702;-77
2023/09/04 08:01:51;;;;;;;12.43;9.07;;;;;17.00;102209.00;;;;5023231;28;20314;-75
2023/09/04 08:04:37;;;;;;;10.73;8.23;;;;;17.10;102218.00;;;;5016396;28;20355;-75
2023/09/04 08:07:24;;;;;;;12.27;9.00;;;;;17.30;102218.00;;;;5018254;28;20233;-76
2023/09/04 08:10:10;;;;;;;13.77;8.03;;;;;17.40;102216.00;;;;5020943;28;20233;-74
2023/09/04 08:12:57;;;;;;;9.90;8.20;;;;;17.50;102208.00;;;;5017465;28;20253;-74
2023/09/04 08:15:43;;;;;;;11.27;7.53;;;;;17.60;102208.00;;;;5020275;28;20755;-74
2023/09/04 08:18:31;;;;;;;9.20;7.60;;;;;17.80;102203.00;;;;5022285;28;20239;-75
2023/09/04 08:21:17;;;;;;;12.40;7.77;;;;;17.90;102203.00;;;;5016064;28;20237;-73
2023/09/04 08:24:04;;;;;;;11.30;7.87;;;;;18.00;102206.00;;;;5026712;28;20245;-75
2023/09/04 08:26:50;;;;;;;12.50;7.03;;;;;18.10;102193.00;;;;5022642;28;21075;-75
2023/09/04 08:29:37;;;;;;;11.60;7.50;;;;;18.20;102186.00;;;;5020064;28;20315;-74
2023/09/04 08:32:23;;;;;;;9.97;7.17;;;;;18.40;102190.00;;;;5019535;28;20271;-73
2023/09/04 08:35:11;;;;;;;9.60;6.73;;;;;18.50;102182.00;;;;5020435;28;20228;-75
2023/09/04 08:37:57;;;;;;;10.60;7.43;;;;;18.60;102189.00;;;;5024091;28;20233;-73
2023/09/04 08:40:45;;;;;;;12.53;7.40;;;;;18.70;102182.00;;;;5021831;28;20237;-74
2023/09/04 08:43:32;;;;;;;9.43;6.93;;;;;18.80;102190.00;;;;5011334;28;20287;-74
2023/09/04 08:46:20;;;;;;;11.07;6.10;;;;;18.90;102182.00;;;;5021748;28;20229;-73
2023/09/04 08:49:06;;;;;;;9.13;6.23;;;;;19.10;102182.00;;;;5026809;28;20239;-76
2023/09/04 08:51:56;;;;;;;8.63;5.83;;;;;19.20;102181.00;;;;5023578;28;20224;-74
2023/09/04 08:54:43;;;;;;;7.33;6.00;;;;;19.30;102187.00;;;;5021177;28;20287;-73
2023/09/04 08:57:31;;;;;;;8.90;5.47;;;;;19.50;102190.00;;;;5008498;28;20234;-73
2023/09/04 09:00:17;;;;;;;7.80;5.07;;;;;19.70;102185.00;;;;5016887;28;20304;-74
2023/09/04 09:03:04;;;;;;;7.33;5.20;;;;;19.80;102185.00;;;;5017200;28;20378;-77
2023/09/04 09:05:55;;;;;;;7.13;4.77;;;;;19.90;102186.00;;;;5022177;28;20244;-73
2023/09/04 09:08:45;;;;;;;5.80;4.47;;;;;20.10;102187.00;;;;5021391;28;20286;-72
2023/09/04 09:11:31;;;;;;;5.70;4.60;;;;;20.20;102178.00;;;;5020017;28;20235;-76
2023/09/04 09:14:17;;;;;;;7.00;4.47;;;;;20.40;102173.00;;;;5020158;28;20231;-73
2023/09/04 09:17:05;;;;;;;4.90;4.40;;;;;20.50;102178.00;;;;5023458;28;20239;-75
2023/09/04 09:19:51;;;;;;;4.90;4.37;;;;;20.60;102167.00;;;;5015869;28;20252;-73
2023/09/04 09:22:37;;;;;;;6.60;4.43;;;;;20.70;102161.00;;;;5013887;28;20237;-76
2023/09/04 09:25:26;;;;;;;7.33;4.37;;;;;20.90;102160.00;;;;5017419;28;20236;-72
2023/09/04 09:28:13;;;;;;;5.20;4.03;;;;;21.10;102170.00;;;;5016914;28;20303;-73
2023/09/04 09:31:00;;;;;;;8.87;4.70;;;;;21.20;102165.00;;;;5019800;28;20252;-72
2023/09/04 09:33:49;;;;;;;5.47;4.17;;;;;21.30;102153.00;;;;5021409;28;20273;-72
2023/09/04 09:36:36;;;;;;;6.10;4.67;;;;;21.40;102156.00;;;;5019917;28;20307;-73
2023/09/04 09:39:22;;;;;;;6.47;4.57;;;;;21.50;102153.00;;;;5017093;28;20241;-72
2023/09/04 09:42:10;;;;;;;5.77;4.57;;;;;21.70;102153.00;;;;5024433;28;20865;-73
2023/09/04 09:44:56;;;;;;;5.43;4.40;;;;;21.70;102154.00;;;;5015878;28;20292;-74
2023/09/04 09:47:43;;;;;;;5.60;3.90;;;;;21.80;102150.00;;;;5024273;28;20249;-73
2023/09/04 09:50:29;;;;;;;5.63;4.37;;;;;21.80;102145.00;;;;5020706;28;20307;-72
2023/09/04 09:53:16;;;;;;;6.63;4.20;;;;;22.00;102140.00;;;;5018394;28;20225;-72
2023/09/04 09:56:03;;;;;;;5.10;4.27;;;;;22.10;102150.00;;;;5013875;28;20237;-73
2023/09/04 09:58:51;;;;;;;4.90;3.67;;;;;22.30;102152.00;;;;5019094;28;20232;-72
2023/09/04 10:01:38;;;;;;;6.93;4.00;;;;;22.40;102143.00;;;;5018199;28;20237;-75
2023/09/04 10:04:25;;;;;;;5.87;4.30;;;;;22.50;102148.00;;;;5014535;28;20229;-70
2023/09/04 10:07:17;;;;;;;8.33;4.53;;;;;22.50;102137.00;;;;5015392;28;20869;-71
2023/09/04 10:10:05;;;;;;;4.60;3.93;;;;;22.60;102139.00;;;;5020255;28;20237;-72
2023/09/04 10:12:58;;;;;;;6.03;4.07;;;;;22.80;102134.00;;;;5020897;28;20747;-72
2023/09/04 10:15:47;;;;;;;8.50;3.20;;;;;22.90;102126.00;;;;5016195;28;20254;-73
2023/09/04 10:18:37;;;;;;;3.57;2.90;;;;;22.90;102115.00;;;;5014536;28;20308;-70
2023/09/04 10:21:28;;;;;;;3.90;3.47;;;;;23.00;102121.00;;;;5012368;28;20821;-72
2023/09/04 10:24:14;;;;;;;4.83;3.00;;;;;23.10;102110.00;;;;5023741;28;20234;-72
2023/09/04 10:27:05;;;;;;;7.20;3.20;;;;;23.20;102108.00;;;;5023749;28;20229;-72
2023/09/04 10:29:57;;;;;;;6.30;3.80;;;;;23.30;102099.00;;;;5023804;28;20776;-74
2023/09/04 10:32:45;;;;;;;4.77;3.40;;;;;23.40;102101.00;;;;5019870;28;20260;-74
2023/09/04 10:35:32;;;;;;;3.63;3.20;;;;;23.40;102107.00;;;;5015384;28;20806;-72
2023/09/04 10:38:19;;;;;;;5.07;3.50;;;;;23.40;102101.00;;;;5013647;28;20225;-73
2023/09/04 10:41:07;;;;;;;3.40;3.10;;;;;23.60;102100.00;;;;5017860;28;20750;-73
2023/09/04 10:43:53;;;;;;;5.03;3.40;;;;;23.70;102098.00;;;;5008712;28;20233;-76
2023/09/04 10:46:55;;;;;;;9.97;3.93;;;;;23.80;102096.00;;;;5022235;28;20703;-75
2023/09/04 10:49:43;;;;;;;4.33;3.60;;;;;23.90;102092.00;;;;5025033;28;20241;-74
2023/09/04 10:52:41;;;;;;;5.77;3.23;;;;;24.00;102097.00;;;;5011242;28;20233;-74
2023/09/04 10:55:28;;;;;;;3.60;3.00;;;;;24.10;102091.00;;;;5015709;28;20245;-72
2023/09/04 10:58:14;;;;;;;4.83;3.40;;;;;24.30;102093.00;;;;5017682;28;20234;-74
2023/09/04 11:01:31;;;;;;;3.33;3.00;;;;;24.50;102087.00;;;;5012666;28;20926;-73
2023/09/04 11:04:31;;;;;;;3.47;2.97;;;;;24.70;102084.00;;;;5018577;28;20279;-73
2023/09/04 11:07:27;;;;;;;5.15;3.08;;;;;24.80;102083.00;;;;5014990;28;20225;-75
2023/09/04 11:10:36;;;;;;;5.03;3.00;;;;;25.00;102088.00;;;;5015842;28;20596;-71
2023/09/04 11:13:23;;;;;;;4.05;3.17;;;;;25.00;102085.00;;;;5023166;28;20878;-74
2023/09/04 11:16:10;;;;;;;6.60;2.78;;;;;25.10;102076.00;;;;5017948;28;20726;-73
2023/09/04 11:19:05;;;;;;;3.38;2.60;;;;;25.20;102084.00;;;;5017748;28;20237;-72
2023/09/04 11:21:51;;;;;;;2.92;2.65;;;;;25.10;102081.00;;;;5016007;28;20677;-74
2023/09/04 11:24:40;;;;;;;5.07;2.90;;;;;25.20;102083.00;;;;5013973;28;20370;-73
2023/09/04 11:27:27;;;;;;;3.38;2.58;;;;;25.40;102073.00;;;;5022166;28;20249;-73
2023/09/04 11:30:15;;;;;;;3.85;3.00;;;;;25.30;102073.00;;;;5026526;28;20224;-71
2023/09/04 11:33:01;;;;;;;7.00;2.85;;;;;25.40;102074.00;;;;5025279;28;20337;-72
2023/09/04 11:35:48;;;;;;;5.63;2.95;;;;;25.60;102066.00;;;;5019865;28;20292;-71
2023/09/04 11:38:35;;;;;;;3.25;2.88;;;;;25.70;102067.00;;;;5022903;28;20230;-71
2023/09/04 11:41:23;;;;;;;3.53;3.00;;;;;25.80;102064.00;;;;5031812;28;20252;-71
2023/09/04 11:44:10;;;;;;;4.88;3.22;;;;;25.90;102069.00;;;;5025706;28;20324;-71
2023/09/04 11:46:57;;;;;;;3.63;3.28;;;;;25.80;102062.00;;;;5028093;28;20698;-73
2023/09/04 11:49:43;;;;;;;4.32;3.58;;;;;25.70;102059.00;;;;5041210;28;20265;-72
2023/09/04 11:52:30;;;;;;;4.22;3.22;;;;;25.80;102066.00;;;;5034333;28;20230;-71
2023/09/04 11:55:16;;;;;;;4.05;2.90;;;;;25.90;102063.00;;;;5038367;28;20297;-71
2023/09/04 11:58:04;;;;;;;4.55;3.05;;;;;25.90;102061.00;;;;5030620;28;20322;-72
2023/09/04 12:00:51;;;;;;;4.00;3.33;;;;;25.90;102066.00;;;;5036432;28;20274;-71
2023/09/04 12:03:37;;;;;;;3.95;3.10;;;;;26.00;102053.00;;;;5032729;28;20252;-71
2023/09/04 12:06:25;;;;;;;3.85;3.30;;;;;26.00;102053.00;;;;5037472;28;20268;-70
2023/09/04 12:09:12;;;;;;;7.30;3.65;;;;;26.10;102056.00;;;;5022418;28;20233;-70
2023/09/04 12:12:00;;;;;;;4.18;3.17;;;;;26.10;102054.00;;;;5025372;28;20300;-71
2023/09/04 12:14:48;;;;;;;3.78;3.40;;;;;26.40;102051.00;;;;5026558;28;20232;-70
2023/09/04 12:17:35;;;;;;;4.15;3.58;;;;;26.40;102052.00;;;;5020861;28;20229;-70
2023/09/04 12:20:22;;;;;;;4.35;3.40;;;;;26.60;102059.00;;;;5022188;28;20257;-72
2023/09/04 12:23:09;;;;;;;3.55;3.20;;;;;26.60;102040.00;;;;5024904;28;20600;-70
2023/09/04 12:25:56;;;;;;;3.38;3.08;;;;;26.70;102042.00;;;;5018941;28;20717;-71
2023/09/04 12:28:42;;;;;;;3.95;3.10;;;;;26.70;102044.00;;;;5019705;28;20240;-71
2023/09/04 12:31:31;;;;;;;3.40;3.10;;;;;26.70;102040.00;;;;5013047;28;20313;-72
2023/09/04 12:34:17;;;;;;;5.05;3.05;;;;;26.80;102043.00;;;;5025887;28;20265;-71
2023/09/04 12:37:04;;;;;;;4.68;3.35;;;;;26.80;102046.00;;;;5019919;28;20222;-71
2023/09/04 12:39:51;;;;;;;3.53;2.92;;;;;26.80;102044.00;;;;5026448;28;20245;-70
2023/09/04 12:42:38;;;;;;;4.47;3.50;;;;;26.90;102039.00;;;;5015550;28;20249;-72
2023/09/04 12:45:25;;;;;;;3.17;2.88;;;;;27.10;102031.00;;;;5023037;28;20229;-72
2023/09/04 12:48:16;;;;;;;3.97;3.20;;;;;27.20;102038.00;;;;5016520;28;20232;-72
2023/09/04 12:51:03;;;;;;;4.57;3.08;;;;;27.10;102030.00;;;;5023725;28;20280;-72
2023/09/04 12:53:49;;;;;;;3.17;2.88;;;;;27.20;102038.00;;;;5025538;28;20812;-71
2023/09/04 12:56:35;;;;;;;3.50;2.58;;;;;27.30;102041.00;;;;5019717;28;20599;-72
2023/09/04 12:59:21;;;;;;;3.35;2.70;;;;;27.40;102030.00;;;;5022337;28;20645;-71
2023/09/04 13:02:08;;;;;;;2.30;2.10;;;;;27.30;102025.00;;;;5015353;28;20843;-72
2023/09/04 13:04:56;;;;;;;7.10;2.30;;;;;27.40;102019.00;;;;5019141;28;20357;-72
2023/09/04 13:07:42;;;;;;;2.83;2.10;;;;;27.60;102019.00;;;;5024499;28;20368;-73
2023/09/04 13:10:29;;;;;;;2.40;2.20;;;;;27.80;102001.00;;;;5018222;28;20241;-72
2023/09/04 13:13:16;;;;;;;4.15;2.38;;;;;27.80;102010.00;;;;5021796;28;20450;-74
2023/09/04 13:16:02;;;;;;;2.40;2.20;;;;;27.90;102005.00;;;;5021147;28;20232;-73
2023/09/04 13:18:48;;;;;;;2.47;2.15;;;;;27.80;102009.00;;;;5018568;28;20784;-72
2023/09/04 13:21:36;;;;;;;2.65;2.10;;;;;27.90;102009.00;;;;5023152;28;20256;-72
2023/09/04 13:24:22;;;;;;;4.75;2.20;;;;;27.90;102002.00;;;;5022301;28;20256;-72
2023/09/04 13:27:10;;;;;;;2.25;2.00;;;;;28.00;102008.00;;;;5018558;28;20360;-72
2023/09/04 13:29:57;;;;;;;3.20;2.00;;;;;28.10;102006.00;;;;5024570;28;20233;-73
2023/09/04 13:32:43;;;;;;;2.90;2.30;;;;;28.30;101989.00;;;;5017519;28;20393;-72
2023/09/04 13:35:29;;;;;;;2.35;1.90;;;;;28.40;101992.00;;;;5025586;28;20355;-73
2023/09/04 13:38:17;;;;;;;2.88;2.15;;;;;28.50;101984.00;;;;5018475;28;20355;-72
2023/09/04 13:41:03;;;;;;;3.15;2.15;;;;;28.50;101981.00;;;;5022025;28;20237;-72
2023/09/04 13:43:51;;;;;;;4.55;2.00;;;;;28.60;101973.00;;;;5019954;28;20337;-70